Schedule Details


Flight Number: CTN321
Departure: Ruzyne (LKPR) at 10:40
Arrival: Franjo Tudman (LDZA) at 12:00
Route: VOZ Z21 PISAM DCT MUREG DCT PETOV

Weather Information
LKPR 221530Z 12008KT 100V170 CAVOK 19/06 Q1013 NOSIG
LDZA 221530Z 21005KT CAVOK 19/11 Q1016 NOSIG
Schedule Frequency

Route Map